sensor_id;sensor_type;location;lat;lon;timestamp;temperature;humidity
29817;DHT22;16805;52.956;5.906;2022-09-29T00:01:54;9.50;99.90
29817;DHT22;16805;52.956;5.906;2022-09-29T00:04:19;9.50;99.90
29817;DHT22;16805;52.956;5.906;2022-09-29T00:06:45;9.50;99.90
29817;DHT22;16805;52.956;5.906;2022-09-29T00:09:10;9.60;99.90
29817;DHT22;16805;52.956;5.906;2022-09-29T00:11:36;9.60;99.90
29817;DHT22;16805;52.956;5.906;2022-09-29T00:14:02;9.60;99.90
29817;DHT22;16805;52.956;5.906;2022-09-29T00:16:27;9.70;99.90
29817;DHT22;16805;52.956;5.906;2022-09-29T00:18:54;9.70;99.90
29817;DHT22;16805;52.956;5.906;2022-09-29T00:21:38;9.70;99.90
29817;DHT22;16805;52.956;5.906;2022-09-29T00:24:04;9.70;99.90
29817;DHT22;16805;52.956;5.906;2022-09-29T00:26:48;9.80;99.90
29817;DHT22;16805;52.956;5.906;2022-09-29T00:29:14;9.70;99.90
29817;DHT22;16805;52.956;5.906;2022-09-29T00:31:39;9.70;99.90
29817;DHT22;16805;52.956;5.906;2022-09-29T00:34:05;9.70;99.90
29817;DHT22;16805;52.956;5.906;2022-09-29T00:36:30;9.70;99.90
29817;DHT22;16805;52.956;5.906;2022-09-29T00:38:57;9.70;99.90
29817;DHT22;16805;52.956;5.906;2022-09-29T00:41:26;9.70;99.90
29817;DHT22;16805;52.956;5.906;2022-09-29T00:44:48;9.70;99.90
29817;DHT22;16805;52.956;5.906;2022-09-29T00:47:02;9.70;99.90
29817;DHT22;16805;52.956;5.906;2022-09-29T00:49:46;9.80;99.90
29817;DHT22;16805;52.956;5.906;2022-09-29T00:52:24;9.70;99.90
29817;DHT22;16805;52.956;5.906;2022-09-29T00:55:11;9.70;99.90
29817;DHT22;16805;52.956;5.906;2022-09-29T00:58:05;9.80;99.90
29817;DHT22;16805;52.956;5.906;2022-09-29T01:00:28;9.70;99.90
29817;DHT22;16805;52.956;5.906;2022-09-29T01:03:07;9.70;99.90
29817;DHT22;16805;52.956;5.906;2022-09-29T01:05:39;9.70;99.90
29817;DHT22;16805;52.956;5.906;2022-09-29T01:08:26;9.70;99.90
29817;DHT22;16805;52.956;5.906;2022-09-29T01:10:53;9.70;99.90
29817;DHT22;16805;52.956;5.906;2022-09-29T01:13:19;9.60;99.90
29817;DHT22;16805;52.956;5.906;2022-09-29T01:15:46;9.60;99.90
29817;DHT22;16805;52.956;5.906;2022-09-29T01:18:12;9.60;99.90
29817;DHT22;16805;52.956;5.906;2022-09-29T01:20:51;9.50;99.90
29817;DHT22;16805;52.956;5.906;2022-09-29T01:26:07;9.60;99.90
29817;DHT22;16805;52.956;5.906;2022-09-29T01:31:49;9.60;99.90
29817;DHT22;16805;52.956;5.906;2022-09-29T01:39:41;9.50;99.90
29817;DHT22;16805;52.956;5.906;2022-09-29T01:42:29;9.50;99.90
29817;DHT22;16805;52.956;5.906;2022-09-29T01:45:14;9.50;99.90
29817;DHT22;16805;52.956;5.906;2022-09-29T01:47:43;9.50;99.90
29817;DHT22;16805;52.956;5.906;2022-09-29T01:50:14;9.50;99.90
29817;DHT22;16805;52.956;5.906;2022-09-29T01:52:45;9.50;99.90
29817;DHT22;16805;52.956;5.906;2022-09-29T01:55:19;9.50;99.90
29817;DHT22;16805;52.956;5.906;2022-09-29T01:58:04;9.50;99.90
29817;DHT22;16805;52.956;5.906;2022-09-29T02:00:36;9.50;99.90
29817;DHT22;16805;52.956;5.906;2022-09-29T02:03:10;9.50;99.90
29817;DHT22;16805;52.956;5.906;2022-09-29T02:05:42;9.50;99.90
29817;DHT22;16805;52.956;5.906;2022-09-29T02:08:26;9.40;99.90
29817;DHT22;16805;52.956;5.906;2022-09-29T02:11:03;9.40;99.90
29817;DHT22;16805;52.956;5.906;2022-09-29T02:13:33;9.40;99.90
29817;DHT22;16805;52.956;5.906;2022-09-29T02:16:00;9.40;99.90
29817;DHT22;16805;52.956;5.906;2022-09-29T02:18:33;9.40;99.90
29817;DHT22;16805;52.956;5.906;2022-09-29T02:21:00;9.40;99.90
29817;DHT22;16805;52.956;5.906;2022-09-29T02:23:26;9.40;99.90
29817;DHT22;16805;52.956;5.906;2022-09-29T02:25:53;9.40;99.90
29817;DHT22;16805;52.956;5.906;2022-09-29T02:28:19;9.40;99.90
29817;DHT22;16805;52.956;5.906;2022-09-29T02:30:48;9.30;99.90
29817;DHT22;16805;52.956;5.906;2022-09-29T02:33:22;9.30;99.90
29817;DHT22;16805;52.956;5.906;2022-09-29T02:38:52;9.30;99.90
29817;DHT22;16805;52.956;5.906;2022-09-29T02:41:31;9.30;99.90
29817;DHT22;16805;52.956;5.906;2022-09-29T02:44:16;9.20;99.90
29817;DHT22;16805;52.956;5.906;2022-09-29T02:55:46;9.10;99.90
29817;DHT22;16805;52.956;5.906;2022-09-29T02:58:17;9.10;99.90
29817;DHT22;16805;52.956;5.906;2022-09-29T03:00:45;9.10;99.90
29817;DHT22;16805;52.956;5.906;2022-09-29T03:03:11;9.00;99.90
29817;DHT22;16805;52.956;5.906;2022-09-29T03:05:37;9.10;99.90
29817;DHT22;16805;52.956;5.906;2022-09-29T03:08:02;9.10;99.90
29817;DHT22;16805;52.956;5.906;2022-09-29T03:10:28;9.00;99.90
29817;DHT22;16805;52.956;5.906;2022-09-29T03:12:54;9.00;99.90
29817;DHT22;16805;52.956;5.906;2022-09-29T03:15:19;9.00;99.90
29817;DHT22;16805;52.956;5.906;2022-09-29T03:17:45;9.00;99.90
29817;DHT22;16805;52.956;5.906;2022-09-29T03:20:11;9.00;99.90
29817;DHT22;16805;52.956;5.906;2022-09-29T03:22:37;9.00;99.90
29817;DHT22;16805;52.956;5.906;2022-09-29T03:25:04;9.00;99.90
29817;DHT22;16805;52.956;5.906;2022-09-29T03:27:31;9.00;99.90
29817;DHT22;16805;52.956;5.906;2022-09-29T03:29:56;9.00;99.90
29817;DHT22;16805;52.956;5.906;2022-09-29T03:32:22;9.00;99.90
29817;DHT22;16805;52.956;5.906;2022-09-29T03:34:47;9.00;99.90
29817;DHT22;16805;52.956;5.906;2022-09-29T03:37:13;8.90;99.90
29817;DHT22;16805;52.956;5.906;2022-09-29T03:39:39;8.90;99.90
29817;DHT22;16805;52.956;5.906;2022-09-29T03:42:05;8.90;99.90
29817;DHT22;16805;52.956;5.906;2022-09-29T03:44:30;8.80;99.90
29817;DHT22;16805;52.956;5.906;2022-09-29T03:46:56;8.80;99.90
29817;DHT22;16805;52.956;5.906;2022-09-29T03:49:21;8.70;99.90
29817;DHT22;16805;52.956;5.906;2022-09-29T03:51:47;8.70;99.90
29817;DHT22;16805;52.956;5.906;2022-09-29T03:54:13;8.60;99.90
29817;DHT22;16805;52.956;5.906;2022-09-29T03:56:38;8.60;99.90
29817;DHT22;16805;52.956;5.906;2022-09-29T03:59:05;8.60;99.90
29817;DHT22;16805;52.956;5.906;2022-09-29T04:01:33;8.70;99.90
29817;DHT22;16805;52.956;5.906;2022-09-29T04:03:58;8.70;99.90
29817;DHT22;16805;52.956;5.906;2022-09-29T04:06:24;8.70;99.90
29817;DHT22;16805;52.956;5.906;2022-09-29T04:08:50;8.70;99.90
29817;DHT22;16805;52.956;5.906;2022-09-29T04:11:16;8.70;99.90
29817;DHT22;16805;52.956;5.906;2022-09-29T04:13:42;8.60;99.90
29817;DHT22;16805;52.956;5.906;2022-09-29T04:16:07;8.70;99.90
29817;DHT22;16805;52.956;5.906;2022-09-29T04:18:33;8.70;99.90
29817;DHT22;16805;52.956;5.906;2022-09-29T04:21:03;8.60;99.90
29817;DHT22;16805;52.956;5.906;2022-09-29T04:23:29;8.60;99.90
29817;DHT22;16805;52.956;5.906;2022-09-29T04:25:56;8.60;99.90
29817;DHT22;16805;52.956;5.906;2022-09-29T04:28:22;8.60;99.90
29817;DHT22;16805;52.956;5.906;2022-09-29T04:30:48;8.60;99.90
29817;DHT22;16805;52.956;5.906;2022-09-29T04:33:14;8.50;99.90
29817;DHT22;16805;52.956;5.906;2022-09-29T04:35:39;8.50;99.90
29817;DHT22;16805;52.956;5.906;2022-09-29T04:38:05;8.50;99.90
29817;DHT22;16805;52.956;5.906;2022-09-29T04:40:33;8.50;99.90
29817;DHT22;16805;52.956;5.906;2022-09-29T04:42:59;8.50;99.90
29817;DHT22;16805;52.956;5.906;2022-09-29T04:45:24;8.50;99.90
29817;DHT22;16805;52.956;5.906;2022-09-29T04:47:50;8.50;99.90
29817;DHT22;16805;52.956;5.906;2022-09-29T04:50:15;8.50;99.90
29817;DHT22;16805;52.956;5.906;2022-09-29T04:52:42;8.50;99.90
29817;DHT22;16805;52.956;5.906;2022-09-29T04:55:08;8.50;99.90
29817;DHT22;16805;52.956;5.906;2022-09-29T04:57:36;8.40;99.90
29817;DHT22;16805;52.956;5.906;2022-09-29T05:00:03;8.40;99.90
29817;DHT22;16805;52.956;5.906;2022-09-29T05:02:29;8.40;99.90
29817;DHT22;16805;52.956;5.906;2022-09-29T05:04:55;8.40;99.90
29817;DHT22;16805;52.956;5.906;2022-09-29T05:07:20;8.30;99.90
29817;DHT22;16805;52.956;5.906;2022-09-29T05:09:46;8.30;99.90
29817;DHT22;16805;52.956;5.906;2022-09-29T05:12:11;8.30;99.90
29817;DHT22;16805;52.956;5.906;2022-09-29T05:14:38;8.30;99.90
29817;DHT22;16805;52.956;5.906;2022-09-29T05:17:03;8.30;99.90
29817;DHT22;16805;52.956;5.906;2022-09-29T05:19:29;8.30;99.90
29817;DHT22;16805;52.956;5.906;2022-09-29T05:21:57;8.30;99.90
29817;DHT22;16805;52.956;5.906;2022-09-29T05:24:23;8.30;99.90
29817;DHT22;16805;52.956;5.906;2022-09-29T05:26:49;8.30;99.90
29817;DHT22;16805;52.956;5.906;2022-09-29T05:29:14;8.30;99.90
29817;DHT22;16805;52.956;5.906;2022-09-29T05:31:41;8.30;99.90
29817;DHT22;16805;52.956;5.906;2022-09-29T05:34:06;8.30;99.90
29817;DHT22;16805;52.956;5.906;2022-09-29T05:36:32;8.30;99.90
29817;DHT22;16805;52.956;5.906;2022-09-29T05:38:58;8.30;99.90
29817;DHT22;16805;52.956;5.906;2022-09-29T05:41:24;8.20;99.90
29817;DHT22;16805;52.956;5.906;2022-09-29T05:43:50;8.20;99.90
29817;DHT22;16805;52.956;5.906;2022-09-29T05:46:18;8.20;99.90
29817;DHT22;16805;52.956;5.906;2022-09-29T05:48:45;8.20;99.90
29817;DHT22;16805;52.956;5.906;2022-09-29T05:51:13;8.20;99.90
29817;DHT22;16805;52.956;5.906;2022-09-29T05:53:39;8.20;99.90
29817;DHT22;16805;52.956;5.906;2022-09-29T05:58:32;8.20;99.90
29817;DHT22;16805;52.956;5.906;2022-09-29T06:00:57;8.20;99.90
29817;DHT22;16805;52.956;5.906;2022-09-29T06:03:23;8.20;99.90
29817;DHT22;16805;52.956;5.906;2022-09-29T06:05:48;8.30;99.90
29817;DHT22;16805;52.956;5.906;2022-09-29T06:08:14;8.30;99.90
29817;DHT22;16805;52.956;5.906;2022-09-29T06:10:40;8.30;99.90
29817;DHT22;16805;52.956;5.906;2022-09-29T06:13:05;8.30;99.90
29817;DHT22;16805;52.956;5.906;2022-09-29T06:15:31;8.30;99.90
29817;DHT22;16805;52.956;5.906;2022-09-29T06:17:58;8.40;99.90
29817;DHT22;16805;52.956;5.906;2022-09-29T06:20:24;8.40;99.90
29817;DHT22;16805;52.956;5.906;2022-09-29T06:22:53;8.50;99.90
29817;DHT22;16805;52.956;5.906;2022-09-29T06:25:18;8.60;99.90
29817;DHT22;16805;52.956;5.906;2022-09-29T06:27:44;8.70;99.90
29817;DHT22;16805;52.956;5.906;2022-09-29T06:30:10;8.90;99.90
29817;DHT22;16805;52.956;5.906;2022-09-29T06:32:37;9.00;99.90
29817;DHT22;16805;52.956;5.906;2022-09-29T06:35:03;9.10;99.90
29817;DHT22;16805;52.956;5.906;2022-09-29T06:37:48;9.20;99.90
29817;DHT22;16805;52.956;5.906;2022-09-29T06:40:14;9.40;99.90
29817;DHT22;16805;52.956;5.906;2022-09-29T06:42:40;9.60;99.90
29817;DHT22;16805;52.956;5.906;2022-09-29T06:45:06;9.70;99.90
29817;DHT22;16805;52.956;5.906;2022-09-29T06:47:33;9.90;99.90
29817;DHT22;16805;52.956;5.906;2022-09-29T06:49:58;10.10;99.90
29817;DHT22;16805;52.956;5.906;2022-09-29T06:52:26;10.20;99.90
29817;DHT22;16805;52.956;5.906;2022-09-29T06:54:51;10.40;99.90
29817;DHT22;16805;52.956;5.906;2022-09-29T06:57:17;10.50;99.90
29817;DHT22;16805;52.956;5.906;2022-09-29T06:59:43;10.50;99.90
29817;DHT22;16805;52.956;5.906;2022-09-29T07:02:10;10.60;99.90
29817;DHT22;16805;52.956;5.906;2022-09-29T07:04:36;10.70;99.90
29817;DHT22;16805;52.956;5.906;2022-09-29T07:07:01;10.80;99.90
29817;DHT22;16805;52.956;5.906;2022-09-29T07:09:27;10.80;99.90
29817;DHT22;16805;52.956;5.906;2022-09-29T07:11:53;10.90;99.90
29817;DHT22;16805;52.956;5.906;2022-09-29T07:14:19;10.90;99.90
29817;DHT22;16805;52.956;5.906;2022-09-29T07:16:47;10.80;99.90
29817;DHT22;16805;52.956;5.906;2022-09-29T07:19:13;10.90;99.90
29817;DHT22;16805;52.956;5.906;2022-09-29T07:21:39;10.80;99.90
29817;DHT22;16805;52.956;5.906;2022-09-29T07:24:05;10.80;99.90
29817;DHT22;16805;52.956;5.906;2022-09-29T07:26:31;10.80;99.90
29817;DHT22;16805;52.956;5.906;2022-09-29T07:28:56;10.80;99.90
29817;DHT22;16805;52.956;5.906;2022-09-29T07:31:22;10.90;99.90
29817;DHT22;16805;52.956;5.906;2022-09-29T07:33:48;10.90;99.90
29817;DHT22;16805;52.956;5.906;2022-09-29T07:36:17;11.00;99.90
29817;DHT22;16805;52.956;5.906;2022-09-29T07:38:50;11.00;99.90
29817;DHT22;16805;52.956;5.906;2022-09-29T07:41:18;11.10;99.90
29817;DHT22;16805;52.956;5.906;2022-09-29T07:43:44;11.20;99.90
29817;DHT22;16805;52.956;5.906;2022-09-29T07:46:10;11.40;99.90
29817;DHT22;16805;52.956;5.906;2022-09-29T07:48:36;11.50;99.90
29817;DHT22;16805;52.956;5.906;2022-09-29T07:51:09;11.60;99.90
29817;DHT22;16805;52.956;5.906;2022-09-29T07:53:35;11.70;99.90
29817;DHT22;16805;52.956;5.906;2022-09-29T07:56:03;11.80;99.90
29817;DHT22;16805;52.956;5.906;2022-09-29T07:58:30;11.90;99.90
29817;DHT22;16805;52.956;5.906;2022-09-29T08:00:56;11.90;99.90
29817;DHT22;16805;52.956;5.906;2022-09-29T08:03:22;12.00;99.90
29817;DHT22;16805;52.956;5.906;2022-09-29T08:05:50;12.10;99.90
29817;DHT22;16805;52.956;5.906;2022-09-29T08:08:16;12.30;99.90
29817;DHT22;16805;52.956;5.906;2022-09-29T08:10:42;12.50;99.90
29817;DHT22;16805;52.956;5.906;2022-09-29T08:13:08;12.60;99.90
29817;DHT22;16805;52.956;5.906;2022-09-29T08:15:34;12.80;99.90
29817;DHT22;16805;52.956;5.906;2022-09-29T08:17:59;12.90;99.90
29817;DHT22;16805;52.956;5.906;2022-09-29T08:20:25;13.00;99.90
29817;DHT22;16805;52.956;5.906;2022-09-29T08:22:51;13.00;99.90
29817;DHT22;16805;52.956;5.906;2022-09-29T08:25:18;13.10;99.90
29817;DHT22;16805;52.956;5.906;2022-09-29T08:27:44;13.20;99.90
29817;DHT22;16805;52.956;5.906;2022-09-29T08:30:10;13.30;99.90
29817;DHT22;16805;52.956;5.906;2022-09-29T08:32:36;13.40;99.90
29817;DHT22;16805;52.956;5.906;2022-09-29T08:35:03;13.60;99.90
29817;DHT22;16805;52.956;5.906;2022-09-29T08:37:29;13.70;99.90
29817;DHT22;16805;52.956;5.906;2022-09-29T08:39:55;13.80;99.90
29817;DHT22;16805;52.956;5.906;2022-09-29T08:45:10;14.10;99.90
29817;DHT22;16805;52.956;5.906;2022-09-29T08:47:42;14.20;99.90
29817;DHT22;16805;52.956;5.906;2022-09-29T08:50:10;14.30;99.90
29817;DHT22;16805;52.956;5.906;2022-09-29T08:52:42;14.40;99.90
29817;DHT22;16805;52.956;5.906;2022-09-29T08:57:45;14.60;99.90
29817;DHT22;16805;52.956;5.906;2022-09-29T09:00:13;14.80;99.90
29817;DHT22;16805;52.956;5.906;2022-09-29T09:02:53;14.90;99.90
29817;DHT22;16805;52.956;5.906;2022-09-29T09:16:35;15.60;99.90
29817;DHT22;16805;52.956;5.906;2022-09-29T09:22:32;16.00;99.90
29817;DHT22;16805;52.956;5.906;2022-09-29T09:30:28;16.40;99.90
29817;DHT22;16805;52.956;5.906;2022-09-29T09:33:01;16.40;99.90
29817;DHT22;16805;52.956;5.906;2022-09-29T09:35:36;16.50;99.90
29817;DHT22;16805;52.956;5.906;2022-09-29T09:38:10;16.60;99.90
29817;DHT22;16805;52.956;5.906;2022-09-29T09:40:45;16.80;99.90
29817;DHT22;16805;52.956;5.906;2022-09-29T09:43:36;16.80;99.90
29817;DHT22;16805;52.956;5.906;2022-09-29T09:46:12;16.90;99.90
29817;DHT22;16805;52.956;5.906;2022-09-29T09:49:12;16.90;99.90
29817;DHT22;16805;52.956;5.906;2022-09-29T09:54:32;17.00;99.90
29817;DHT22;16805;52.956;5.906;2022-09-29T09:57:08;17.10;99.90
29817;DHT22;16805;52.956;5.906;2022-09-29T10:02:20;17.30;99.90
29817;DHT22;16805;52.956;5.906;2022-09-29T10:04:53;17.40;99.90
29817;DHT22;16805;52.956;5.906;2022-09-29T10:07:20;17.50;99.90
29817;DHT22;16805;52.956;5.906;2022-09-29T10:09:47;17.50;99.90
29817;DHT22;16805;52.956;5.906;2022-09-29T10:12:23;17.70;99.90
29817;DHT22;16805;52.956;5.906;2022-09-29T10:14:58;17.80;99.90
29817;DHT22;16805;52.956;5.906;2022-09-29T10:17:26;17.80;99.90
29817;DHT22;16805;52.956;5.906;2022-09-29T10:19:58;17.90;99.90
29817;DHT22;16805;52.956;5.906;2022-09-29T10:22:26;18.00;99.90
29817;DHT22;16805;52.956;5.906;2022-09-29T10:24:53;18.10;99.90
29817;DHT22;16805;52.956;5.906;2022-09-29T10:27:23;18.20;99.90
29817;DHT22;16805;52.956;5.906;2022-09-29T10:29:52;18.20;99.90
29817;DHT22;16805;52.956;5.906;2022-09-29T10:32:24;18.20;99.90
29817;DHT22;16805;52.956;5.906;2022-09-29T10:37:45;18.20;99.90
29817;DHT22;16805;52.956;5.906;2022-09-29T10:40:16;18.20;99.90
29817;DHT22;16805;52.956;5.906;2022-09-29T10:42:44;18.30;99.90
29817;DHT22;16805;52.956;5.906;2022-09-29T10:45:13;18.30;99.90
29817;DHT22;16805;52.956;5.906;2022-09-29T10:48:25;18.20;99.90
29817;DHT22;16805;52.956;5.906;2022-09-29T10:50:32;18.20;99.90
29817;DHT22;16805;52.956;5.906;2022-09-29T10:53:00;18.20;99.90
29817;DHT22;16805;52.956;5.906;2022-09-29T10:55:47;18.20;99.90
29817;DHT22;16805;52.956;5.906;2022-09-29T10:58:34;18.20;99.90
29817;DHT22;16805;52.956;5.906;2022-09-29T11:01:10;18.30;99.90
29817;DHT22;16805;52.956;5.906;2022-09-29T11:03:59;18.30;99.90
29817;DHT22;16805;52.956;5.906;2022-09-29T11:06:39;18.30;99.90
29817;DHT22;16805;52.956;5.906;2022-09-29T11:16:58;18.20;99.90
29817;DHT22;16805;52.956;5.906;2022-09-29T11:19:24;18.10;99.90
29817;DHT22;16805;52.956;5.906;2022-09-29T11:27:37;18.00;99.90
29817;DHT22;16805;52.956;5.906;2022-09-29T11:30:18;18.00;99.90
29817;DHT22;16805;52.956;5.906;2022-09-29T11:38:28;17.80;99.90
29817;DHT22;16805;52.956;5.906;2022-09-29T11:46:50;17.70;99.90
29817;DHT22;16805;52.956;5.906;2022-09-29T11:49:32;17.70;99.90
29817;DHT22;16805;52.956;5.906;2022-09-29T11:52:20;17.60;99.90
29817;DHT22;16805;52.956;5.906;2022-09-29T12:00:11;17.50;99.90
29817;DHT22;16805;52.956;5.906;2022-09-29T12:06:09;17.40;99.90
29817;DHT22;16805;52.956;5.906;2022-09-29T12:11:40;17.40;99.90
29817;DHT22;16805;52.956;5.906;2022-09-29T12:17:25;17.40;99.90
29817;DHT22;16805;52.956;5.906;2022-09-29T12:19:44;17.40;99.90
29817;DHT22;16805;52.956;5.906;2022-09-29T12:22:17;17.40;99.90
29817;DHT22;16805;52.956;5.906;2022-09-29T12:24:49;17.40;99.90
29817;DHT22;16805;52.956;5.906;2022-09-29T12:27:23;17.30;99.90
29817;DHT22;16805;52.956;5.906;2022-09-29T12:30:22;17.30;99.90
29817;DHT22;16805;52.956;5.906;2022-09-29T12:33:01;17.20;99.90
29817;DHT22;16805;52.956;5.906;2022-09-29T12:35:38;17.20;99.90
29817;DHT22;16805;52.956;5.906;2022-09-29T12:38:19;17.10;99.90
29817;DHT22;16805;52.956;5.906;2022-09-29T12:43:37;17.10;99.90
29817;DHT22;16805;52.956;5.906;2022-09-29T12:46:16;17.10;99.90
29817;DHT22;16805;52.956;5.906;2022-09-29T12:51:47;17.10;99.90
29817;DHT22;16805;52.956;5.906;2022-09-29T12:57:25;17.00;99.90
29817;DHT22;16805;52.956;5.906;2022-09-29T13:00:00;16.90;99.90
29817;DHT22;16805;52.956;5.906;2022-09-29T13:08:50;17.00;99.90
29817;DHT22;16805;52.956;5.906;2022-09-29T13:16:50;17.10;99.90
29817;DHT22;16805;52.956;5.906;2022-09-29T13:27:42;17.00;99.90
29817;DHT22;16805;52.956;5.906;2022-09-29T13:59:22;16.50;99.90
29817;DHT22;16805;52.956;5.906;2022-09-29T14:01:49;16.50;99.90
29817;DHT22;16805;52.956;5.906;2022-09-29T14:04:56;16.50;99.90
29817;DHT22;16805;52.956;5.906;2022-09-29T14:07:45;16.40;99.90
29817;DHT22;16805;52.956;5.906;2022-09-29T14:10:29;16.40;99.90
29817;DHT22;16805;52.956;5.906;2022-09-29T14:16:13;16.30;99.90
29817;DHT22;16805;52.956;5.906;2022-09-29T14:18:53;16.30;99.90
29817;DHT22;16805;52.956;5.906;2022-09-29T14:21:46;16.30;99.90
29817;DHT22;16805;52.956;5.906;2022-09-29T14:27:31;16.20;99.90
29817;DHT22;16805;52.956;5.906;2022-09-29T14:30:14;16.20;99.90
29817;DHT22;16805;52.956;5.906;2022-09-29T14:35:36;16.20;99.90
29817;DHT22;16805;52.956;5.906;2022-09-29T14:49:13;16.20;99.90
29817;DHT22;16805;52.956;5.906;2022-09-29T14:52:35;16.10;99.90
29817;DHT22;16805;52.956;5.906;2022-09-29T15:00:17;16.10;99.90
29817;DHT22;16805;52.956;5.906;2022-09-29T15:02:47;16.10;99.90
29817;DHT22;16805;52.956;5.906;2022-09-29T15:05:40;16.10;99.90
29817;DHT22;16805;52.956;5.906;2022-09-29T15:08:26;16.10;99.90
29817;DHT22;16805;52.956;5.906;2022-09-29T15:10:52;16.10;99.90
29817;DHT22;16805;52.956;5.906;2022-09-29T15:13:26;16.10;99.90
29817;DHT22;16805;52.956;5.906;2022-09-29T15:15:59;16.10;99.90
29817;DHT22;16805;52.956;5.906;2022-09-29T15:21:14;16.00;99.90
29817;DHT22;16805;52.956;5.906;2022-09-29T15:24:05;15.80;99.90
29817;DHT22;16805;52.956;5.906;2022-09-29T15:26:39;15.70;99.90
29817;DHT22;16805;52.956;5.906;2022-09-29T15:29:06;15.60;99.90
29817;DHT22;16805;52.956;5.906;2022-09-29T15:31:33;15.50;99.90
29817;DHT22;16805;52.956;5.906;2022-09-29T15:34:01;15.40;99.90
29817;DHT22;16805;52.956;5.906;2022-09-29T15:36:35;15.40;99.90
29817;DHT22;16805;52.956;5.906;2022-09-29T15:42:21;15.40;99.90
29817;DHT22;16805;52.956;5.906;2022-09-29T15:44:59;15.40;99.90
29817;DHT22;16805;52.956;5.906;2022-09-29T15:47:34;15.40;99.90
29817;DHT22;16805;52.956;5.906;2022-09-29T15:50:20;15.40;99.90
29817;DHT22;16805;52.956;5.906;2022-09-29T15:52:47;15.40;99.90
29817;DHT22;16805;52.956;5.906;2022-09-29T15:55:18;15.40;99.90
29817;DHT22;16805;52.956;5.906;2022-09-29T15:57:47;15.40;99.90
29817;DHT22;16805;52.956;5.906;2022-09-29T16:03:31;15.40;99.90
29817;DHT22;16805;52.956;5.906;2022-09-29T16:06:11;15.40;99.90
29817;DHT22;16805;52.956;5.906;2022-09-29T16:08:42;15.40;99.90
29817;DHT22;16805;52.956;5.906;2022-09-29T16:11:18;15.50;99.90
29817;DHT22;16805;52.956;5.906;2022-09-29T16:13:49;15.40;99.90
29817;DHT22;16805;52.956;5.906;2022-09-29T16:16:15;15.40;99.90
29817;DHT22;16805;52.956;5.906;2022-09-29T16:18:43;15.40;99.90
29817;DHT22;16805;52.956;5.906;2022-09-29T16:21:13;15.40;99.90
29817;DHT22;16805;52.956;5.906;2022-09-29T16:23:44;15.40;99.90
29817;DHT22;16805;52.956;5.906;2022-09-29T16:26:16;15.30;99.90
29817;DHT22;16805;52.956;5.906;2022-09-29T16:31:26;15.30;99.90
29817;DHT22;16805;52.956;5.906;2022-09-29T16:33:58;15.30;99.90
29817;DHT22;16805;52.956;5.906;2022-09-29T16:36:27;15.30;99.90
29817;DHT22;16805;52.956;5.906;2022-09-29T16:38:58;15.30;99.90
29817;DHT22;16805;52.956;5.906;2022-09-29T16:41:34;15.30;99.90
29817;DHT22;16805;52.956;5.906;2022-09-29T16:47:17;15.20;99.90
29817;DHT22;16805;52.956;5.906;2022-09-29T16:49:49;15.20;99.90
29817;DHT22;16805;52.956;5.906;2022-09-29T16:54:45;15.20;99.90
29817;DHT22;16805;52.956;5.906;2022-09-29T16:57:27;15.10;99.90
29817;DHT22;16805;52.956;5.906;2022-09-29T16:59:57;15.10;99.90
29817;DHT22;16805;52.956;5.906;2022-09-29T17:02:23;15.10;99.90
29817;DHT22;16805;52.956;5.906;2022-09-29T17:04:54;15.00;99.90
29817;DHT22;16805;52.956;5.906;2022-09-29T17:07:25;15.00;99.90
29817;DHT22;16805;52.956;5.906;2022-09-29T17:09:57;15.00;99.90
29817;DHT22;16805;52.956;5.906;2022-09-29T17:12:24;15.00;99.90
29817;DHT22;16805;52.956;5.906;2022-09-29T17:14:51;15.00;99.90
29817;DHT22;16805;52.956;5.906;2022-09-29T17:17:22;14.90;99.90
29817;DHT22;16805;52.956;5.906;2022-09-29T17:19:49;14.80;99.90
29817;DHT22;16805;52.956;5.906;2022-09-29T17:22:29;14.70;99.90
29817;DHT22;16805;52.956;5.906;2022-09-29T17:24:56;14.50;99.90
29817;DHT22;16805;52.956;5.906;2022-09-29T17:27:22;14.40;99.90
29817;DHT22;16805;52.956;5.906;2022-09-29T17:30:07;14.30;99.90
29817;DHT22;16805;52.956;5.906;2022-09-29T17:32:33;14.20;99.90
29817;DHT22;16805;52.956;5.906;2022-09-29T17:35:00;14.00;99.90
29817;DHT22;16805;52.956;5.906;2022-09-29T17:37:26;14.00;99.90
29817;DHT22;16805;52.956;5.906;2022-09-29T17:39:52;14.00;99.90
29817;DHT22;16805;52.956;5.906;2022-09-29T17:42:18;13.90;99.90
29817;DHT22;16805;52.956;5.906;2022-09-29T17:44:43;13.80;99.90
29817;DHT22;16805;52.956;5.906;2022-09-29T17:47:13;13.70;99.90
29817;DHT22;16805;52.956;5.906;2022-09-29T17:49:40;13.70;99.90
29817;DHT22;16805;52.956;5.906;2022-09-29T17:52:07;13.60;99.90
29817;DHT22;16805;52.956;5.906;2022-09-29T17:54:34;13.60;99.90
29817;DHT22;16805;52.956;5.906;2022-09-29T17:57:02;13.60;99.90
29817;DHT22;16805;52.956;5.906;2022-09-29T17:59:27;13.60;99.90
29817;DHT22;16805;52.956;5.906;2022-09-29T18:01:53;13.70;99.90
29817;DHT22;16805;52.956;5.906;2022-09-29T18:04:19;13.60;99.90
29817;DHT22;16805;52.956;5.906;2022-09-29T18:06:44;13.70;99.90
29817;DHT22;16805;52.956;5.906;2022-09-29T18:09:15;13.70;99.90
29817;DHT22;16805;52.956;5.906;2022-09-29T18:11:41;13.70;99.90
29817;DHT22;16805;52.956;5.906;2022-09-29T18:14:07;13.70;99.90
29817;DHT22;16805;52.956;5.906;2022-09-29T18:16:33;13.80;99.90
29817;DHT22;16805;52.956;5.906;2022-09-29T18:18:59;13.80;99.90
29817;DHT22;16805;52.956;5.906;2022-09-29T18:21:25;13.80;99.90
29817;DHT22;16805;52.956;5.906;2022-09-29T18:23:50;13.90;99.90
29817;DHT22;16805;52.956;5.906;2022-09-29T18:26:16;13.90;99.90
29817;DHT22;16805;52.956;5.906;2022-09-29T18:28:42;13.90;99.90
29817;DHT22;16805;52.956;5.906;2022-09-29T18:31:24;13.90;99.90
29817;DHT22;16805;52.956;5.906;2022-09-29T18:33:51;13.90;99.90
29817;DHT22;16805;52.956;5.906;2022-09-29T18:36:17;13.90;99.90
29817;DHT22;16805;52.956;5.906;2022-09-29T18:38:43;13.80;99.90
29817;DHT22;16805;52.956;5.906;2022-09-29T18:41:14;13.80;99.90
29817;DHT22;16805;52.956;5.906;2022-09-29T18:43:41;13.80;99.90
29817;DHT22;16805;52.956;5.906;2022-09-29T18:46:07;13.80;99.90
29817;DHT22;16805;52.956;5.906;2022-09-29T18:48:33;13.80;99.90
29817;DHT22;16805;52.956;5.906;2022-09-29T18:50:59;13.80;99.90
29817;DHT22;16805;52.956;5.906;2022-09-29T18:53:24;13.80;99.90
29817;DHT22;16805;52.956;5.906;2022-09-29T18:55:54;13.70;99.90
29817;DHT22;16805;52.956;5.906;2022-09-29T18:58:21;13.70;99.90
29817;DHT22;16805;52.956;5.906;2022-09-29T19:00:52;13.70;99.90
29817;DHT22;16805;52.956;5.906;2022-09-29T19:03:20;13.60;99.90
29817;DHT22;16805;52.956;5.906;2022-09-29T19:05:48;13.60;99.90
29817;DHT22;16805;52.956;5.906;2022-09-29T19:08:15;13.60;99.90
29817;DHT22;16805;52.956;5.906;2022-09-29T19:10:47;13.50;99.90
29817;DHT22;16805;52.956;5.906;2022-09-29T19:13:14;13.60;99.90
29817;DHT22;16805;52.956;5.906;2022-09-29T19:15:41;13.50;99.90
29817;DHT22;16805;52.956;5.906;2022-09-29T19:18:08;13.50;99.90